sensor_id;sensor_type;location;lat;lon;timestamp;P1;durP1;ratioP1;P2;durP2;ratioP2
50205;SDS011;36098;48.390;10.856;2022-07-29T00:00:41;2.22;;;1.70;;
50205;SDS011;36098;48.390;10.856;2022-07-29T00:03:09;1.90;;;1.52;;
50205;SDS011;36098;48.390;10.856;2022-07-29T00:05:35;2.03;;;1.60;;
50205;SDS011;36098;48.390;10.856;2022-07-29T00:08:00;3.47;;;1.77;;
50205;SDS011;36098;48.390;10.856;2022-07-29T00:10:26;2.60;;;1.40;;
50205;SDS011;36098;48.390;10.856;2022-07-29T00:12:51;3.05;;;1.70;;
50205;SDS011;36098;48.390;10.856;2022-07-29T00:15:16;1.90;;;1.60;;
50205;SDS011;36098;48.390;10.856;2022-07-29T00:17:41;1.67;;;1.58;;
50205;SDS011;36098;48.390;10.856;2022-07-29T00:20:07;2.92;;;1.50;;
50205;SDS011;36098;48.390;10.856;2022-07-29T00:22:33;1.92;;;1.35;;
50205;SDS011;36098;48.390;10.856;2022-07-29T00:25:02;2.13;;;1.60;;
50205;SDS011;36098;48.390;10.856;2022-07-29T00:27:28;1.80;;;1.50;;
50205;SDS011;36098;48.390;10.856;2022-07-29T00:29:53;1.85;;;1.42;;
50205;SDS011;36098;48.390;10.856;2022-07-29T00:32:18;2.72;;;1.77;;
50205;SDS011;36098;48.390;10.856;2022-07-29T00:34:44;2.35;;;1.52;;
50205;SDS011;36098;48.390;10.856;2022-07-29T00:37:28;3.35;;;1.60;;
50205;SDS011;36098;48.390;10.856;2022-07-29T00:39:53;2.22;;;1.50;;
50205;SDS011;36098;48.390;10.856;2022-07-29T00:42:18;1.73;;;1.38;;
50205;SDS011;36098;48.390;10.856;2022-07-29T00:44:44;2.15;;;1.50;;
50205;SDS011;36098;48.390;10.856;2022-07-29T00:47:10;1.63;;;1.30;;
50205;SDS011;36098;48.390;10.856;2022-07-29T00:49:36;2.63;;;1.73;;
50205;SDS011;36098;48.390;10.856;2022-07-29T00:52:03;2.03;;;1.35;;
50205;SDS011;36098;48.390;10.856;2022-07-29T00:54:30;3.63;;;1.60;;
50205;SDS011;36098;48.390;10.856;2022-07-29T00:56:57;2.63;;;1.50;;
50205;SDS011;36098;48.390;10.856;2022-07-29T00:59:23;2.30;;;1.27;;
50205;SDS011;36098;48.390;10.856;2022-07-29T01:01:48;2.33;;;1.50;;
50205;SDS011;36098;48.390;10.856;2022-07-29T01:04:14;1.40;;;1.30;;
50205;SDS011;36098;48.390;10.856;2022-07-29T01:06:39;1.95;;;1.40;;
50205;SDS011;36098;48.390;10.856;2022-07-29T01:09:04;1.67;;;1.30;;
50205;SDS011;36098;48.390;10.856;2022-07-29T01:11:30;2.25;;;1.42;;
50205;SDS011;36098;48.390;10.856;2022-07-29T01:13:56;2.10;;;1.48;;
50205;SDS011;36098;48.390;10.856;2022-07-29T01:16:24;1.77;;;1.30;;
50205;SDS011;36098;48.390;10.856;2022-07-29T01:27:26;1.65;;;1.40;;
50205;SDS011;36098;48.390;10.856;2022-07-29T01:30:01;1.23;;;1.13;;
50205;SDS011;36098;48.390;10.856;2022-07-29T01:32:28;1.83;;;1.42;;
50205;SDS011;36098;48.390;10.856;2022-07-29T01:40:08;2.05;;;1.52;;
50205;SDS011;36098;48.390;10.856;2022-07-29T01:42:44;1.30;;;1.10;;
50205;SDS011;36098;48.390;10.856;2022-07-29T01:48:16;1.88;;;1.40;;
50205;SDS011;36098;48.390;10.856;2022-07-29T01:50:52;1.75;;;1.35;;
50205;SDS011;36098;48.390;10.856;2022-07-29T01:53:26;1.73;;;1.20;;
50205;SDS011;36098;48.390;10.856;2022-07-29T01:58:22;1.83;;;1.27;;
50205;SDS011;36098;48.390;10.856;2022-07-29T02:00:49;1.70;;;1.60;;
50205;SDS011;36098;48.390;10.856;2022-07-29T02:03:15;1.65;;;1.30;;
50205;SDS011;36098;48.390;10.856;2022-07-29T02:05:42;1.70;;;1.25;;
50205;SDS011;36098;48.390;10.856;2022-07-29T02:08:11;1.40;;;1.20;;
50205;SDS011;36098;48.390;10.856;2022-07-29T02:10:38;1.60;;;1.20;;
50205;SDS011;36098;48.390;10.856;2022-07-29T02:13:05;1.70;;;1.15;;
50205;SDS011;36098;48.390;10.856;2022-07-29T02:15:33;1.33;;;1.23;;
50205;SDS011;36098;48.390;10.856;2022-07-29T02:18:11;1.58;;;1.23;;
50205;SDS011;36098;48.390;10.856;2022-07-29T02:20:41;1.45;;;1.25;;
50205;SDS011;36098;48.390;10.856;2022-07-29T02:23:10;1.30;;;1.20;;
50205;SDS011;36098;48.390;10.856;2022-07-29T02:25:37;1.58;;;1.25;;
50205;SDS011;36098;48.390;10.856;2022-07-29T02:28:04;2.05;;;1.30;;
50205;SDS011;36098;48.390;10.856;2022-07-29T02:30:31;1.73;;;1.33;;
50205;SDS011;36098;48.390;10.856;2022-07-29T02:32:57;1.63;;;1.27;;
50205;SDS011;36098;48.390;10.856;2022-07-29T02:35:23;1.73;;;1.17;;
50205;SDS011;36098;48.390;10.856;2022-07-29T02:37:49;1.33;;;1.20;;
50205;SDS011;36098;48.390;10.856;2022-07-29T02:40:36;1.88;;;1.30;;
50205;SDS011;36098;48.390;10.856;2022-07-29T02:43:03;1.52;;;1.27;;
50205;SDS011;36098;48.390;10.856;2022-07-29T02:45:32;1.88;;;1.30;;
50205;SDS011;36098;48.390;10.856;2022-07-29T02:47:58;1.83;;;1.05;;
50205;SDS011;36098;48.390;10.856;2022-07-29T02:50:30;1.40;;;1.30;;
50205;SDS011;36098;48.390;10.856;2022-07-29T02:53:01;1.50;;;1.10;;
50205;SDS011;36098;48.390;10.856;2022-07-29T02:55:33;1.50;;;1.33;;
50205;SDS011;36098;48.390;10.856;2022-07-29T03:00:48;1.48;;;1.20;;
50205;SDS011;36098;48.390;10.856;2022-07-29T03:03:17;2.15;;;1.33;;
50205;SDS011;36098;48.390;10.856;2022-07-29T03:05:43;1.65;;;1.30;;
50205;SDS011;36098;48.390;10.856;2022-07-29T03:08:10;1.33;;;1.08;;
50205;SDS011;36098;48.390;10.856;2022-07-29T03:10:42;1.23;;;1.10;;
50205;SDS011;36098;48.390;10.856;2022-07-29T03:13:09;2.15;;;1.10;;
50205;SDS011;36098;48.390;10.856;2022-07-29T03:15:35;1.30;;;1.20;;
50205;SDS011;36098;48.390;10.856;2022-07-29T03:18:01;1.52;;;1.20;;
50205;SDS011;36098;48.390;10.856;2022-07-29T03:20:27;1.38;;;1.20;;
50205;SDS011;36098;48.390;10.856;2022-07-29T03:22:52;1.23;;;1.10;;
50205;SDS011;36098;48.390;10.856;2022-07-29T03:25:18;1.70;;;1.30;;
50205;SDS011;36098;48.390;10.856;2022-07-29T03:27:44;1.35;;;0.98;;
50205;SDS011;36098;48.390;10.856;2022-07-29T03:30:10;1.63;;;1.15;;
50205;SDS011;36098;48.390;10.856;2022-07-29T03:32:37;1.90;;;1.20;;
50205;SDS011;36098;48.390;10.856;2022-07-29T03:35:03;1.45;;;1.00;;
50205;SDS011;36098;48.390;10.856;2022-07-29T03:37:29;1.58;;;1.10;;
50205;SDS011;36098;48.390;10.856;2022-07-29T03:39:55;1.67;;;1.17;;
50205;SDS011;36098;48.390;10.856;2022-07-29T03:42:22;2.00;;;1.20;;
50205;SDS011;36098;48.390;10.856;2022-07-29T03:44:50;1.88;;;1.20;;
50205;SDS011;36098;48.390;10.856;2022-07-29T03:47:17;1.60;;;1.13;;
50205;SDS011;36098;48.390;10.856;2022-07-29T03:49:47;1.20;;;1.00;;
50205;SDS011;36098;48.390;10.856;2022-07-29T03:52:15;1.63;;;1.33;;
50205;SDS011;36098;48.390;10.856;2022-07-29T03:54:41;1.48;;;1.10;;
50205;SDS011;36098;48.390;10.856;2022-07-29T03:57:06;1.38;;;1.13;;
50205;SDS011;36098;48.390;10.856;2022-07-29T03:59:32;1.58;;;1.10;;
50205;SDS011;36098;48.390;10.856;2022-07-29T04:01:59;1.40;;;1.15;;
50205;SDS011;36098;48.390;10.856;2022-07-29T04:04:25;2.65;;;1.40;;
50205;SDS011;36098;48.390;10.856;2022-07-29T04:06:51;1.48;;;1.20;;
50205;SDS011;36098;48.390;10.856;2022-07-29T04:09:16;1.52;;;1.15;;
50205;SDS011;36098;48.390;10.856;2022-07-29T04:11:42;2.05;;;1.20;;
50205;SDS011;36098;48.390;10.856;2022-07-29T04:14:07;1.65;;;1.30;;
50205;SDS011;36098;48.390;10.856;2022-07-29T04:16:33;2.17;;;1.30;;
50205;SDS011;36098;48.390;10.856;2022-07-29T04:18:58;1.73;;;1.30;;
50205;SDS011;36098;48.390;10.856;2022-07-29T04:21:24;1.73;;;1.38;;
50205;SDS011;36098;48.390;10.856;2022-07-29T04:23:49;2.42;;;1.30;;
50205;SDS011;36098;48.390;10.856;2022-07-29T04:26:18;1.85;;;1.30;;
50205;SDS011;36098;48.390;10.856;2022-07-29T04:28:45;1.63;;;1.33;;
50205;SDS011;36098;48.390;10.856;2022-07-29T04:31:11;2.00;;;1.30;;
50205;SDS011;36098;48.390;10.856;2022-07-29T04:33:36;1.88;;;1.17;;
50205;SDS011;36098;48.390;10.856;2022-07-29T04:36:02;1.60;;;1.20;;
50205;SDS011;36098;48.390;10.856;2022-07-29T04:38:27;1.60;;;1.05;;
50205;SDS011;36098;48.390;10.856;2022-07-29T04:40:53;2.13;;;1.40;;
50205;SDS011;36098;48.390;10.856;2022-07-29T04:43:18;1.80;;;1.30;;
50205;SDS011;36098;48.390;10.856;2022-07-29T04:45:43;1.52;;;1.20;;
50205;SDS011;36098;48.390;10.856;2022-07-29T04:48:08;1.50;;;1.20;;
50205;SDS011;36098;48.390;10.856;2022-07-29T04:50:34;1.73;;;1.33;;
50205;SDS011;36098;48.390;10.856;2022-07-29T04:53:02;1.35;;;1.00;;
50205;SDS011;36098;48.390;10.856;2022-07-29T04:55:27;1.40;;;1.10;;
50205;SDS011;36098;48.390;10.856;2022-07-29T04:57:53;1.60;;;1.25;;
50205;SDS011;36098;48.390;10.856;2022-07-29T05:00:18;1.60;;;1.10;;
50205;SDS011;36098;48.390;10.856;2022-07-29T05:02:43;3.42;;;1.27;;
50205;SDS011;36098;48.390;10.856;2022-07-29T05:05:08;1.98;;;1.10;;
50205;SDS011;36098;48.390;10.856;2022-07-29T05:07:34;4.47;;;1.30;;
50205;SDS011;36098;48.390;10.856;2022-07-29T05:09:59;3.30;;;1.60;;
50205;SDS011;36098;48.390;10.856;2022-07-29T05:12:24;4.47;;;1.42;;
50205;SDS011;36098;48.390;10.856;2022-07-29T05:14:50;5.45;;;1.45;;
50205;SDS011;36098;48.390;10.856;2022-07-29T05:17:15;5.30;;;1.80;;
50205;SDS011;36098;48.390;10.856;2022-07-29T05:19:41;1.70;;;1.40;;
50205;SDS011;36098;48.390;10.856;2022-07-29T05:22:06;7.68;;;1.52;;
50205;SDS011;36098;48.390;10.856;2022-07-29T05:24:31;5.35;;;1.98;;
50205;SDS011;36098;48.390;10.856;2022-07-29T05:26:57;2.75;;;1.80;;
50205;SDS011;36098;48.390;10.856;2022-07-29T05:29:22;5.10;;;1.80;;
50205;SDS011;36098;48.390;10.856;2022-07-29T05:31:47;5.38;;;2.25;;
50205;SDS011;36098;48.390;10.856;2022-07-29T05:34:12;3.60;;;1.77;;
50205;SDS011;36098;48.390;10.856;2022-07-29T05:36:38;3.90;;;1.88;;
50205;SDS011;36098;48.390;10.856;2022-07-29T05:39:03;5.07;;;2.00;;
50205;SDS011;36098;48.390;10.856;2022-07-29T05:41:31;3.53;;;1.75;;
50205;SDS011;36098;48.390;10.856;2022-07-29T05:43:57;3.65;;;2.08;;
50205;SDS011;36098;48.390;10.856;2022-07-29T05:46:23;6.03;;;1.70;;
50205;SDS011;36098;48.390;10.856;2022-07-29T05:48:48;5.38;;;1.88;;
50205;SDS011;36098;48.390;10.856;2022-07-29T05:51:14;3.83;;;2.10;;
50205;SDS011;36098;48.390;10.856;2022-07-29T05:53:39;3.08;;;1.80;;
50205;SDS011;36098;48.390;10.856;2022-07-29T05:56:04;2.10;;;1.58;;
50205;SDS011;36098;48.390;10.856;2022-07-29T05:58:30;6.50;;;1.92;;
50205;SDS011;36098;48.390;10.856;2022-07-29T06:00:55;2.95;;;1.70;;
50205;SDS011;36098;48.390;10.856;2022-07-29T06:03:24;4.05;;;2.03;;
50205;SDS011;36098;48.390;10.856;2022-07-29T06:05:49;2.38;;;1.80;;
50205;SDS011;36098;48.390;10.856;2022-07-29T06:08:15;4.03;;;1.73;;
50205;SDS011;36098;48.390;10.856;2022-07-29T06:10:40;5.50;;;1.80;;
50205;SDS011;36098;48.390;10.856;2022-07-29T06:13:05;3.80;;;1.60;;
50205;SDS011;36098;48.390;10.856;2022-07-29T06:15:31;6.22;;;1.52;;
50205;SDS011;36098;48.390;10.856;2022-07-29T06:17:56;6.38;;;2.40;;
50205;SDS011;36098;48.390;10.856;2022-07-29T06:20:22;5.28;;;2.10;;
50205;SDS011;36098;48.390;10.856;2022-07-29T06:22:47;5.05;;;2.50;;
50205;SDS011;36098;48.390;10.856;2022-07-29T06:25:12;4.65;;;2.67;;
50205;SDS011;36098;48.390;10.856;2022-07-29T06:27:37;5.47;;;2.72;;
50205;SDS011;36098;48.390;10.856;2022-07-29T06:30:03;4.80;;;2.40;;
50205;SDS011;36098;48.390;10.856;2022-07-29T06:32:31;7.20;;;2.90;;
50205;SDS011;36098;48.390;10.856;2022-07-29T06:34:57;7.95;;;2.90;;
50205;SDS011;36098;48.390;10.856;2022-07-29T06:37:22;4.45;;;2.70;;
50205;SDS011;36098;48.390;10.856;2022-07-29T06:39:47;4.10;;;2.47;;
50205;SDS011;36098;48.390;10.856;2022-07-29T06:42:12;2.92;;;2.10;;
50205;SDS011;36098;48.390;10.856;2022-07-29T06:44:38;7.78;;;2.20;;
50205;SDS011;36098;48.390;10.856;2022-07-29T06:47:04;3.28;;;2.00;;
50205;SDS011;36098;48.390;10.856;2022-07-29T06:49:29;2.85;;;1.85;;
50205;SDS011;36098;48.390;10.856;2022-07-29T06:51:55;3.00;;;1.90;;
50205;SDS011;36098;48.390;10.856;2022-07-29T06:54:20;3.15;;;1.70;;
50205;SDS011;36098;48.390;10.856;2022-07-29T06:56:46;3.30;;;1.70;;
50205;SDS011;36098;48.390;10.856;2022-07-29T06:59:12;3.63;;;1.90;;
50205;SDS011;36098;48.390;10.856;2022-07-29T07:01:41;3.67;;;1.70;;
50205;SDS011;36098;48.390;10.856;2022-07-29T07:04:08;3.88;;;2.13;;
50205;SDS011;36098;48.390;10.856;2022-07-29T07:06:34;2.95;;;1.88;;
50205;SDS011;36098;48.390;10.856;2022-07-29T07:08:59;5.97;;;1.98;;
50205;SDS011;36098;48.390;10.856;2022-07-29T07:11:25;3.60;;;2.05;;
50205;SDS011;36098;48.390;10.856;2022-07-29T07:13:50;3.25;;;1.90;;
50205;SDS011;36098;48.390;10.856;2022-07-29T07:16:15;4.22;;;1.90;;
50205;SDS011;36098;48.390;10.856;2022-07-29T07:18:41;5.70;;;2.00;;
50205;SDS011;36098;48.390;10.856;2022-07-29T07:21:06;3.67;;;1.70;;
50205;SDS011;36098;48.390;10.856;2022-07-29T07:23:31;3.22;;;1.90;;
50205;SDS011;36098;48.390;10.856;2022-07-29T07:25:57;2.42;;;1.60;;
50205;SDS011;36098;48.390;10.856;2022-07-29T07:28:22;2.65;;;1.90;;
50205;SDS011;36098;48.390;10.856;2022-07-29T07:30:48;3.25;;;1.73;;
50205;SDS011;36098;48.390;10.856;2022-07-29T07:33:13;6.20;;;1.85;;
50205;SDS011;36098;48.390;10.856;2022-07-29T07:35:39;2.70;;;1.60;;
50205;SDS011;36098;48.390;10.856;2022-07-29T07:38:05;4.10;;;1.92;;
50205;SDS011;36098;48.390;10.856;2022-07-29T07:40:31;3.28;;;1.75;;
50205;SDS011;36098;48.390;10.856;2022-07-29T07:42:56;4.07;;;1.80;;
50205;SDS011;36098;48.390;10.856;2022-07-29T07:45:22;1.90;;;1.60;;
50205;SDS011;36098;48.390;10.856;2022-07-29T07:47:47;2.85;;;1.80;;
50205;SDS011;36098;48.390;10.856;2022-07-29T07:50:12;3.50;;;1.65;;
50205;SDS011;36098;48.390;10.856;2022-07-29T07:52:51;4.53;;;1.65;;
50205;SDS011;36098;48.390;10.856;2022-07-29T07:55:18;2.25;;;1.45;;
50205;SDS011;36098;48.390;10.856;2022-07-29T07:57:44;2.92;;;1.60;;
50205;SDS011;36098;48.390;10.856;2022-07-29T08:00:10;2.70;;;1.52;;
50205;SDS011;36098;48.390;10.856;2022-07-29T08:02:38;4.90;;;1.73;;
50205;SDS011;36098;48.390;10.856;2022-07-29T08:05:04;6.70;;;1.45;;
50205;SDS011;36098;48.390;10.856;2022-07-29T08:07:30;4.10;;;1.63;;
50205;SDS011;36098;48.390;10.856;2022-07-29T08:09:55;1.88;;;1.48;;
50205;SDS011;36098;48.390;10.856;2022-07-29T08:12:21;2.42;;;1.60;;
50205;SDS011;36098;48.390;10.856;2022-07-29T08:14:46;1.92;;;1.50;;
50205;SDS011;36098;48.390;10.856;2022-07-29T08:17:12;4.07;;;1.67;;
50205;SDS011;36098;48.390;10.856;2022-07-29T08:19:37;2.30;;;1.50;;
50205;SDS011;36098;48.390;10.856;2022-07-29T08:22:03;2.70;;;1.50;;
50205;SDS011;36098;48.390;10.856;2022-07-29T08:24:28;3.83;;;1.52;;
50205;SDS011;36098;48.390;10.856;2022-07-29T08:27:11;2.30;;;1.60;;
50205;SDS011;36098;48.390;10.856;2022-07-29T08:29:37;2.92;;;1.50;;
50205;SDS011;36098;48.390;10.856;2022-07-29T08:32:02;2.20;;;1.17;;
50205;SDS011;36098;48.390;10.856;2022-07-29T08:34:28;1.83;;;1.27;;
50205;SDS011;36098;48.390;10.856;2022-07-29T08:36:54;2.42;;;1.70;;
50205;SDS011;36098;48.390;10.856;2022-07-29T08:39:22;2.08;;;1.50;;
50205;SDS011;36098;48.390;10.856;2022-07-29T08:41:49;1.98;;;1.50;;
50205;SDS011;36098;48.390;10.856;2022-07-29T08:44:16;2.67;;;1.67;;
50205;SDS011;36098;48.390;10.856;2022-07-29T08:46:42;2.38;;;1.40;;
50205;SDS011;36098;48.390;10.856;2022-07-29T08:49:08;1.88;;;1.48;;
50205;SDS011;36098;48.390;10.856;2022-07-29T08:51:34;2.55;;;1.52;;
50205;SDS011;36098;48.390;10.856;2022-07-29T08:54:01;2.15;;;1.50;;
50205;SDS011;36098;48.390;10.856;2022-07-29T08:56:27;1.65;;;1.30;;
50205;SDS011;36098;48.390;10.856;2022-07-29T08:58:52;1.65;;;1.27;;
50205;SDS011;36098;48.390;10.856;2022-07-29T09:01:22;1.85;;;1.33;;
50205;SDS011;36098;48.390;10.856;2022-07-29T09:03:49;2.63;;;1.70;;
50205;SDS011;36098;48.390;10.856;2022-07-29T09:06:15;2.35;;;1.60;;
50205;SDS011;36098;48.390;10.856;2022-07-29T09:08:42;2.60;;;1.40;;
50205;SDS011;36098;48.390;10.856;2022-07-29T09:11:09;2.40;;;1.58;;
50205;SDS011;36098;48.390;10.856;2022-07-29T09:13:36;1.92;;;1.40;;
50205;SDS011;36098;48.390;10.856;2022-07-29T09:16:01;1.80;;;1.50;;
50205;SDS011;36098;48.390;10.856;2022-07-29T09:21:07;4.68;;;1.70;;
50205;SDS011;36098;48.390;10.856;2022-07-29T09:24:05;4.88;;;1.45;;
50205;SDS011;36098;48.390;10.856;2022-07-29T09:26:44;2.20;;;1.60;;
50205;SDS011;36098;48.390;10.856;2022-07-29T09:29:14;2.05;;;1.40;;
50205;SDS011;36098;48.390;10.856;2022-07-29T09:31:43;1.60;;;1.30;;
50205;SDS011;36098;48.390;10.856;2022-07-29T09:34:10;3.00;;;1.38;;
50205;SDS011;36098;48.390;10.856;2022-07-29T09:36:41;1.90;;;1.30;;
50205;SDS011;36098;48.390;10.856;2022-07-29T09:39:07;3.33;;;1.40;;
50205;SDS011;36098;48.390;10.856;2022-07-29T09:41:50;1.77;;;1.35;;
50205;SDS011;36098;48.390;10.856;2022-07-29T09:44:20;1.88;;;1.48;;
50205;SDS011;36098;48.390;10.856;2022-07-29T09:49:30;2.22;;;1.55;;
50205;SDS011;36098;48.390;10.856;2022-07-29T09:52:01;1.73;;;1.30;;
50205;SDS011;36098;48.390;10.856;2022-07-29T09:54:29;2.92;;;1.50;;
50205;SDS011;36098;48.390;10.856;2022-07-29T09:56:59;4.00;;;1.52;;
50205;SDS011;36098;48.390;10.856;2022-07-29T09:59:24;4.18;;;1.42;;
50205;SDS011;36098;48.390;10.856;2022-07-29T10:01:51;1.65;;;1.40;;
50205;SDS011;36098;48.390;10.856;2022-07-29T10:04:17;2.58;;;1.27;;
50205;SDS011;36098;48.390;10.856;2022-07-29T10:06:58;2.78;;;1.30;;
50205;SDS011;36098;48.390;10.856;2022-07-29T10:09:25;3.38;;;1.70;;
50205;SDS011;36098;48.390;10.856;2022-07-29T10:14:38;5.00;;;1.63;;
50205;SDS011;36098;48.390;10.856;2022-07-29T10:17:04;2.20;;;1.50;;
50205;SDS011;36098;48.390;10.856;2022-07-29T10:19:31;4.28;;;1.60;;
50205;SDS011;36098;48.390;10.856;2022-07-29T10:21:58;1.83;;;1.52;;
50205;SDS011;36098;48.390;10.856;2022-07-29T10:24:26;2.25;;;1.50;;
50205;SDS011;36098;48.390;10.856;2022-07-29T10:26:56;3.00;;;1.48;;
50205;SDS011;36098;48.390;10.856;2022-07-29T10:29:23;3.30;;;1.90;;
50205;SDS011;36098;48.390;10.856;2022-07-29T10:31:56;3.03;;;1.67;;
50205;SDS011;36098;48.390;10.856;2022-07-29T10:37:35;2.08;;;1.52;;
50205;SDS011;36098;48.390;10.856;2022-07-29T10:40:36;2.92;;;1.73;;
50205;SDS011;36098;48.390;10.856;2022-07-29T10:43:29;3.05;;;1.50;;
50205;SDS011;36098;48.390;10.856;2022-07-29T10:46:01;3.92;;;2.20;;
50205;SDS011;36098;48.390;10.856;2022-07-29T10:48:27;5.60;;;2.03;;
50205;SDS011;36098;48.390;10.856;2022-07-29T10:56:23;6.75;;;2.13;;
50205;SDS011;36098;48.390;10.856;2022-07-29T11:01:46;3.55;;;2.28;;
50205;SDS011;36098;48.390;10.856;2022-07-29T11:04:12;4.60;;;2.30;;
50205;SDS011;36098;48.390;10.856;2022-07-29T11:09:32;5.13;;;2.03;;
50205;SDS011;36098;48.390;10.856;2022-07-29T11:11:58;4.47;;;2.00;;
50205;SDS011;36098;48.390;10.856;2022-07-29T11:17:17;3.80;;;2.20;;
50205;SDS011;36098;48.390;10.856;2022-07-29T11:19:43;4.72;;;2.50;;
50205;SDS011;36098;48.390;10.856;2022-07-29T11:22:09;4.97;;;2.40;;
50205;SDS011;36098;48.390;10.856;2022-07-29T11:24:36;4.50;;;2.33;;
50205;SDS011;36098;48.390;10.856;2022-07-29T11:27:09;4.40;;;2.72;;
50205;SDS011;36098;48.390;10.856;2022-07-29T11:29:39;5.15;;;2.80;;
50205;SDS011;36098;48.390;10.856;2022-07-29T11:32:12;4.68;;;2.97;;
50205;SDS011;36098;48.390;10.856;2022-07-29T11:34:40;5.78;;;2.50;;
50205;SDS011;36098;48.390;10.856;2022-07-29T11:39:31;13.35;;;2.63;;
50205;SDS011;36098;48.390;10.856;2022-07-29T11:47:31;4.45;;;2.30;;
50205;SDS011;36098;48.390;10.856;2022-07-29T11:49:59;7.10;;;2.35;;
50205;SDS011;36098;48.390;10.856;2022-07-29T11:52:32;5.47;;;2.28;;
50205;SDS011;36098;48.390;10.856;2022-07-29T11:55:07;3.05;;;2.30;;
50205;SDS011;36098;48.390;10.856;2022-07-29T11:57:35;4.05;;;1.98;;
50205;SDS011;36098;48.390;10.856;2022-07-29T12:00:00;4.13;;;2.10;;
50205;SDS011;36098;48.390;10.856;2022-07-29T12:02:37;4.30;;;2.17;;
50205;SDS011;36098;48.390;10.856;2022-07-29T12:05:04;4.40;;;2.38;;
50205;SDS011;36098;48.390;10.856;2022-07-29T12:07:30;4.03;;;2.40;;
50205;SDS011;36098;48.390;10.856;2022-07-29T12:09:57;3.10;;;2.20;;
50205;SDS011;36098;48.390;10.856;2022-07-29T12:12:22;3.90;;;2.50;;
50205;SDS011;36098;48.390;10.856;2022-07-29T12:14:48;4.20;;;2.38;;
50205;SDS011;36098;48.390;10.856;2022-07-29T12:17:26;6.03;;;2.35;;
50205;SDS011;36098;48.390;10.856;2022-07-29T12:19:56;2.92;;;2.03;;
50205;SDS011;36098;48.390;10.856;2022-07-29T12:22:25;2.70;;;2.25;;
50205;SDS011;36098;48.390;10.856;2022-07-29T12:24:52;6.05;;;2.47;;
50205;SDS011;36098;48.390;10.856;2022-07-29T12:27:18;4.90;;;2.33;;
50205;SDS011;36098;48.390;10.856;2022-07-29T12:29:43;4.30;;;2.03;;
50205;SDS011;36098;48.390;10.856;2022-07-29T12:32:08;3.80;;;2.30;;
50205;SDS011;36098;48.390;10.856;2022-07-29T12:34:35;3.92;;;1.90;;
50205;SDS011;36098;48.390;10.856;2022-07-29T12:37:00;3.50;;;2.20;;
50205;SDS011;36098;48.390;10.856;2022-07-29T12:39:26;3.90;;;2.20;;
50205;SDS011;36098;48.390;10.856;2022-07-29T12:41:52;3.03;;;2.08;;
50205;SDS011;36098;48.390;10.856;2022-07-29T12:44:18;2.58;;;1.90;;
50205;SDS011;36098;48.390;10.856;2022-07-29T12:46:43;4.45;;;2.30;;
50205;SDS011;36098;48.390;10.856;2022-07-29T12:49:20;3.47;;;1.90;;
50205;SDS011;36098;48.390;10.856;2022-07-29T12:51:46;4.68;;;2.08;;
50205;SDS011;36098;48.390;10.856;2022-07-29T12:54:13;4.45;;;2.40;;
50205;SDS011;36098;48.390;10.856;2022-07-29T12:56:40;4.60;;;2.30;;
50205;SDS011;36098;48.390;10.856;2022-07-29T12:59:11;5.38;;;2.10;;
50205;SDS011;36098;48.390;10.856;2022-07-29T13:01:46;6.10;;;2.30;;
50205;SDS011;36098;48.390;10.856;2022-07-29T13:04:24;4.25;;;2.35;;
50205;SDS011;36098;48.390;10.856;2022-07-29T13:09:35;5.73;;;2.40;;
50205;SDS011;36098;48.390;10.856;2022-07-29T13:12:05;6.45;;;2.35;;
50205;SDS011;36098;48.390;10.856;2022-07-29T13:14:33;7.85;;;2.15;;
50205;SDS011;36098;48.390;10.856;2022-07-29T13:19:40;2.97;;;2.25;;
50205;SDS011;36098;48.390;10.856;2022-07-29T13:22:11;4.80;;;2.10;;
50205;SDS011;36098;48.390;10.856;2022-07-29T13:27:10;4.05;;;2.08;;
50205;SDS011;36098;48.390;10.856;2022-07-29T13:29:35;4.13;;;1.90;;
50205;SDS011;36098;48.390;10.856;2022-07-29T13:32:02;2.88;;;1.90;;
50205;SDS011;36098;48.390;10.856;2022-07-29T13:34:27;5.53;;;1.90;;
50205;SDS011;36098;48.390;10.856;2022-07-29T13:36:53;3.33;;;1.88;;
50205;SDS011;36098;48.390;10.856;2022-07-29T13:39:18;7.50;;;2.17;;
50205;SDS011;36098;48.390;10.856;2022-07-29T13:41:43;2.80;;;1.65;;
50205;SDS011;36098;48.390;10.856;2022-07-29T13:44:09;3.70;;;1.58;;
50205;SDS011;36098;48.390;10.856;2022-07-29T13:46:34;5.20;;;1.73;;
50205;SDS011;36098;48.390;10.856;2022-07-29T13:49:00;5.38;;;2.03;;
50205;SDS011;36098;48.390;10.856;2022-07-29T13:51:25;7.20;;;2.20;;
50205;SDS011;36098;48.390;10.856;2022-07-29T13:53:51;3.47;;;1.80;;
50205;SDS011;36098;48.390;10.856;2022-07-29T13:56:16;3.58;;;1.90;;
50205;SDS011;36098;48.390;10.856;2022-07-29T13:58:41;6.55;;;1.80;;
50205;SDS011;36098;48.390;10.856;2022-07-29T14:01:07;5.70;;;2.20;;
50205;SDS011;36098;48.390;10.856;2022-07-29T14:03:32;3.88;;;1.88;;
50205;SDS011;36098;48.390;10.856;2022-07-29T14:05:57;5.32;;;1.88;;
50205;SDS011;36098;48.390;10.856;2022-07-29T14:08:24;6.43;;;2.33;;
50205;SDS011;36098;48.390;10.856;2022-07-29T14:10:50;3.55;;;1.88;;
50205;SDS011;36098;48.390;10.856;2022-07-29T14:13:15;4.55;;;2.15;;
50205;SDS011;36098;48.390;10.856;2022-07-29T14:15:40;3.67;;;2.00;;
50205;SDS011;36098;48.390;10.856;2022-07-29T14:18:06;2.78;;;1.70;;
50205;SDS011;36098;48.390;10.856;2022-07-29T14:20:31;7.32;;;1.80;;
50205;SDS011;36098;48.390;10.856;2022-07-29T14:22:56;5.05;;;2.10;;
50205;SDS011;36098;48.390;10.856;2022-07-29T14:25:23;6.47;;;2.20;;
50205;SDS011;36098;48.390;10.856;2022-07-29T14:27:48;8.88;;;2.10;;
50205;SDS011;36098;48.390;10.856;2022-07-29T14:30:14;4.63;;;1.85;;
50205;SDS011;36098;48.390;10.856;2022-07-29T14:32:39;4.47;;;1.85;;
50205;SDS011;36098;48.390;10.856;2022-07-29T14:35:05;5.88;;;2.10;;
50205;SDS011;36098;48.390;10.856;2022-07-29T14:37:31;6.78;;;1.88;;
50205;SDS011;36098;48.390;10.856;2022-07-29T14:39:57;4.53;;;2.00;;
50205;SDS011;36098;48.390;10.856;2022-07-29T14:42:26;3.25;;;1.77;;
50205;SDS011;36098;48.390;10.856;2022-07-29T14:44:51;2.58;;;1.90;;
50205;SDS011;36098;48.390;10.856;2022-07-29T14:47:17;5.47;;;2.03;;
50205;SDS011;36098;48.390;10.856;2022-07-29T14:49:42;2.50;;;1.90;;
50205;SDS011;36098;48.390;10.856;2022-07-29T14:52:07;3.88;;;2.00;;
50205;SDS011;36098;48.390;10.856;2022-07-29T14:54:33;4.72;;;2.15;;
50205;SDS011;36098;48.390;10.856;2022-07-29T14:56:58;3.90;;;1.92;;
50205;SDS011;36098;48.390;10.856;2022-07-29T14:59:24;4.28;;;2.00;;
50205;SDS011;36098;48.390;10.856;2022-07-29T15:01:50;5.18;;;2.10;;
50205;SDS011;36098;48.390;10.856;2022-07-29T15:04:16;3.85;;;2.30;;
50205;SDS011;36098;48.390;10.856;2022-07-29T15:06:41;2.55;;;1.88;;
50205;SDS011;36098;48.390;10.856;2022-07-29T15:09:06;3.17;;;2.05;;
50205;SDS011;36098;48.390;10.856;2022-07-29T15:11:31;5.00;;;2.00;;
50205;SDS011;36098;48.390;10.856;2022-07-29T15:13:57;2.50;;;1.83;;
50205;SDS011;36098;48.390;10.856;2022-07-29T15:16:22;2.30;;;2.03;;
50205;SDS011;36098;48.390;10.856;2022-07-29T15:18:47;4.85;;;1.70;;
50205;SDS011;36098;48.390;10.856;2022-07-29T15:21:12;3.10;;;1.83;;
50205;SDS011;36098;48.390;10.856;2022-07-29T15:23:38;3.13;;;2.05;;
50205;SDS011;36098;48.390;10.856;2022-07-29T15:26:03;5.15;;;2.05;;
50205;SDS011;36098;48.390;10.856;2022-07-29T15:28:29;5.82;;;2.20;;
50205;SDS011;36098;48.390;10.856;2022-07-29T15:30:54;2.30;;;2.08;;
50205;SDS011;36098;48.390;10.856;2022-07-29T15:33:19;3.08;;;2.30;;
50205;SDS011;36098;48.390;10.856;2022-07-29T15:35:45;4.78;;;2.65;;